createdAt,value
2018-08-31T00:02:36.422Z,54.80
2018-08-31T00:05:46.970Z,55.10
2018-08-31T00:08:38.426Z,55.30
2018-08-31T00:13:17.078Z,55.20
2018-08-31T00:15:47.140Z,56.60
2018-08-31T00:18:16.830Z,55.80
2018-08-31T00:20:46.493Z,56.00
2018-08-31T00:23:17.207Z,56.00
2018-08-31T00:28:01.752Z,55.90
2018-08-31T00:30:42.684Z,55.90
2018-08-31T00:33:26.843Z,56.30
2018-08-31T00:36:13.776Z,56.10
2018-08-31T00:38:58.146Z,56.20
2018-08-31T00:43:55.003Z,56.60
2018-08-31T00:46:26.166Z,57.00
2018-08-31T00:48:55.875Z,56.80
2018-08-31T00:51:25.570Z,56.80
2018-08-31T00:53:55.745Z,57.40
2018-08-31T00:56:25.395Z,56.90
2018-08-31T00:58:55.220Z,56.70
2018-08-31T01:01:33.052Z,56.60
2018-08-31T01:04:02.987Z,56.10
2018-08-31T01:06:32.832Z,56.30
2018-08-31T01:09:03.395Z,56.20
2018-08-31T01:11:33.372Z,56.60
2018-08-31T01:14:03.192Z,57.20
2018-08-31T01:16:34.251Z,57.00
2018-08-31T01:19:04.272Z,57.00
2018-08-31T01:21:34.216Z,57.00
2018-08-31T01:24:04.143Z,56.90
2018-08-31T01:26:33.871Z,57.00
2018-08-31T01:29:03.777Z,56.80
2018-08-31T01:31:33.783Z,57.00
2018-08-31T01:34:03.429Z,56.80
2018-08-31T01:36:33.162Z,56.70
2018-08-31T01:39:03.030Z,56.80
2018-08-31T01:41:32.767Z,56.90
2018-08-31T01:44:03.547Z,57.20
2018-08-31T01:46:33.912Z,57.00
2018-08-31T01:49:03.656Z,57.20
2018-08-31T01:51:33.504Z,57.00
2018-08-31T01:54:03.183Z,56.80
2018-08-31T01:56:32.929Z,56.80
2018-08-31T01:59:02.690Z,56.80
2018-08-31T02:01:33.240Z,56.60
2018-08-31T02:04:04.249Z,56.60
2018-08-31T02:06:34.826Z,56.50
2018-08-31T02:09:10.065Z,56.80
2018-08-31T02:11:39.662Z,57.60
2018-08-31T02:14:09.368Z,56.90
2018-08-31T02:16:39.194Z,57.70
2018-08-31T02:19:08.972Z,57.20
2018-08-31T02:21:38.974Z,57.10
2018-08-31T02:24:08.821Z,57.00
2018-08-31T02:26:38.441Z,57.00
2018-08-31T02:29:08.863Z,56.80
2018-08-31T02:31:38.870Z,57.00
2018-08-31T02:34:08.713Z,57.30
2018-08-31T02:36:38.362Z,57.50
2018-08-31T02:39:09.706Z,57.80
2018-08-31T02:41:39.391Z,57.90
2018-08-31T02:44:09.200Z,58.40
2018-08-31T02:46:39.995Z,58.20
2018-08-31T02:49:10.622Z,58.20
2018-08-31T02:51:40.252Z,58.10
2018-08-31T02:54:10.594Z,58.20
2018-08-31T02:56:40.204Z,58.00
2018-08-31T02:59:09.864Z,58.10
2018-08-31T03:01:39.837Z,58.50
2018-08-31T03:04:09.698Z,58.50
2018-08-31T03:06:39.335Z,58.60
2018-08-31T03:09:09.311Z,58.50
2018-08-31T03:11:39.140Z,58.70
2018-08-31T03:14:11.458Z,58.80
2018-08-31T03:16:41.567Z,58.90
2018-08-31T03:19:11.381Z,58.90
2018-08-31T03:21:41.060Z,58.60
2018-08-31T03:24:11.668Z,58.80
2018-08-31T03:26:41.313Z,59.40
2018-08-31T03:29:12.740Z,59.80
2018-08-31T03:31:42.634Z,60.10
2018-08-31T03:34:12.498Z,60.70
2018-08-31T03:36:42.976Z,60.50
2018-08-31T03:39:13.736Z,60.00
2018-08-31T03:41:43.447Z,59.40
2018-08-31T03:44:13.016Z,59.40
2018-08-31T03:46:52.086Z,59.20
2018-08-31T03:49:22.307Z,59.10
2018-08-31T03:51:52.390Z,59.20
2018-08-31T03:54:22.359Z,59.60
2018-08-31T03:56:52.046Z,59.40
2018-08-31T03:59:22.219Z,59.20
2018-08-31T04:01:51.867Z,59.20
2018-08-31T04:04:21.497Z,59.10
2018-08-31T04:06:51.283Z,59.30
2018-08-31T04:09:21.124Z,59.20
2018-08-31T04:11:50.817Z,60.20
2018-08-31T04:14:21.968Z,59.00
2018-08-31T04:16:51.595Z,58.80
2018-08-31T04:19:22.438Z,58.40
2018-08-31T04:21:52.443Z,58.30
2018-08-31T04:24:22.066Z,58.40
2018-08-31T04:26:51.691Z,58.90
2018-08-31T04:29:22.502Z,58.80
2018-08-31T04:31:52.204Z,58.80
2018-08-31T04:34:22.110Z,59.20
2018-08-31T04:36:52.346Z,59.40
2018-08-31T04:39:22.028Z,59.20
2018-08-31T04:41:51.700Z,58.80
2018-08-31T04:44:22.120Z,58.60
2018-08-31T04:46:52.006Z,58.60
2018-08-31T04:49:21.644Z,59.00
2018-08-31T04:51:51.787Z,59.40
2018-08-31T04:54:21.553Z,59.30
2018-08-31T04:56:51.582Z,59.20
2018-08-31T04:59:22.801Z,57.60
2018-08-31T05:01:52.523Z,58.60
2018-08-31T05:04:23.247Z,58.70
2018-08-31T05:06:54.593Z,58.90
2018-08-31T05:09:24.239Z,59.00
2018-08-31T05:11:54.063Z,59.20
2018-08-31T05:14:24.560Z,59.50
2018-08-31T05:16:54.365Z,58.90
2018-08-31T05:19:24.805Z,59.40
2018-08-31T05:21:56.789Z,59.80
2018-08-31T05:24:27.221Z,59.60
2018-08-31T05:26:58.360Z,59.50
2018-08-31T05:29:31.154Z,59.30
2018-08-31T05:32:17.908Z,59.10
2018-08-31T05:34:48.338Z,58.80
2018-08-31T05:37:18.988Z,58.60
2018-08-31T05:39:49.017Z,58.50
2018-08-31T05:42:19.196Z,58.70
2018-08-31T05:44:49.790Z,58.50
2018-08-31T05:47:20.198Z,58.70
2018-08-31T05:49:51.082Z,60.00
2018-08-31T05:52:20.941Z,59.90
2018-08-31T05:54:50.774Z,59.40
2018-08-31T05:57:21.266Z,59.70
2018-08-31T05:59:51.860Z,60.00
2018-08-31T06:02:24.085Z,60.20
2018-08-31T06:04:54.675Z,60.50
2018-08-31T06:07:26.256Z,61.30
2018-08-31T06:09:56.147Z,59.90
2018-08-31T06:12:27.918Z,61.00
2018-08-31T06:14:59.745Z,59.80
2018-08-31T06:17:31.891Z,60.70
2018-08-31T06:20:09.457Z,61.20
2018-08-31T06:22:41.823Z,61.70
2018-08-31T06:25:14.698Z,62.00
2018-08-31T06:27:47.463Z,62.10
2018-08-31T06:30:20.204Z,62.20
2018-08-31T06:32:54.880Z,62.10
2018-08-31T06:35:33.560Z,61.80
2018-08-31T06:38:07.649Z,61.60
2018-08-31T06:40:39.825Z,61.50
2018-08-31T06:43:14.417Z,61.60
2018-08-31T06:45:44.179Z,61.40
2018-08-31T06:48:13.877Z,61.50
2018-08-31T06:50:44.614Z,61.50
2018-08-31T06:53:18.735Z,62.00
2018-08-31T06:55:49.806Z,61.60
2018-08-31T06:58:32.870Z,61.00
2018-08-31T07:01:05.839Z,61.60
2018-08-31T07:03:38.095Z,61.80
2018-08-31T07:06:15.093Z,62.10
2018-08-31T07:08:48.589Z,62.10
2018-08-31T07:11:18.932Z,62.60
2018-08-31T07:14:03.762Z,62.30
2018-08-31T07:16:34.973Z,62.10
2018-08-31T07:19:06.263Z,62.20
2018-08-31T07:21:36.231Z,61.90
2018-08-31T07:24:08.062Z,62.00
2018-08-31T07:26:38.195Z,61.90
2018-08-31T07:29:08.164Z,62.50
2018-08-31T07:31:38.367Z,61.90
2018-08-31T07:34:19.484Z,62.50
2018-08-31T07:36:51.783Z,62.40
2018-08-31T07:39:22.983Z,61.80
2018-08-31T07:41:52.751Z,59.50
2018-08-31T07:44:25.348Z,60.70
2018-08-31T07:46:55.285Z,60.50
2018-08-31T07:49:26.163Z,61.40
2018-08-31T07:51:59.671Z,64.00
2018-08-31T07:54:31.467Z,64.90
2018-08-31T07:57:09.338Z,65.00
2018-08-31T07:59:40.671Z,65.90
2018-08-31T08:02:12.398Z,65.60
2018-08-31T08:04:42.379Z,64.90
2018-08-31T08:07:20.403Z,64.20
2018-08-31T08:09:52.795Z,64.80
2018-08-31T08:12:32.423Z,66.90
2018-08-31T08:15:06.224Z,66.50
2018-08-31T08:17:37.771Z,67.30
2018-08-31T08:20:09.622Z,65.60
2018-08-31T08:22:39.966Z,66.00
2018-08-31T08:25:10.941Z,64.10
2018-08-31T08:27:47.093Z,62.20
2018-08-31T08:30:21.324Z,64.00
2018-08-31T08:32:56.211Z,61.40
2018-08-31T08:35:32.015Z,61.80
2018-08-31T08:38:06.659Z,62.50
2018-08-31T08:40:41.090Z,61.80
2018-08-31T08:43:13.311Z,63.10
2018-08-31T08:45:44.962Z,62.50
2018-08-31T08:48:16.179Z,61.50
2018-08-31T08:50:47.610Z,63.60
2018-08-31T08:53:18.604Z,61.10
2018-08-31T08:55:50.816Z,59.60
2018-08-31T08:58:21.897Z,59.20
2018-08-31T09:00:53.269Z,62.20
2018-08-31T09:03:23.653Z,62.10
2018-08-31T09:05:56.192Z,60.40
2018-08-31T09:08:26.628Z,59.00
2018-08-31T09:10:57.116Z,58.10
2018-08-31T09:13:28.756Z,57.80
2018-08-31T09:16:05.663Z,57.30
2018-08-31T09:18:37.023Z,56.50
2018-08-31T09:21:08.434Z,55.70
2018-08-31T09:23:41.421Z,55.40
2018-08-31T09:26:15.093Z,55.50
2018-08-31T09:28:46.246Z,55.60
2018-08-31T09:31:19.820Z,56.40
2018-08-31T09:33:53.431Z,56.10
2018-08-31T09:36:24.431Z,58.60
2018-08-31T09:38:57.368Z,60.40
2018-08-31T09:41:36.742Z,58.80
2018-08-31T09:44:07.689Z,59.20
2018-08-31T09:46:42.643Z,59.60
2018-08-31T09:49:13.402Z,60.30
2018-08-31T09:51:44.089Z,61.10
2018-08-31T09:54:17.449Z,59.90
2018-08-31T09:56:52.572Z,59.70
2018-08-31T09:59:23.560Z,58.30
2018-08-31T10:01:56.819Z,58.10
2018-08-31T10:04:27.400Z,57.40
2018-08-31T10:06:57.606Z,58.20
2018-08-31T10:09:29.725Z,58.40
2018-08-31T10:12:00.292Z,58.10
2018-08-31T10:14:30.393Z,57.50
2018-08-31T10:17:00.715Z,56.30
2018-08-31T10:19:33.387Z,57.10
2018-08-31T10:22:08.304Z,57.90
2018-08-31T10:24:42.200Z,58.60
2018-08-31T10:27:12.806Z,56.80
2018-08-31T10:29:43.275Z,55.50
2018-08-31T10:32:14.120Z,56.10
2018-08-31T10:34:59.797Z,56.00
2018-08-31T10:37:30.881Z,54.80
2018-08-31T10:40:01.346Z,54.80
2018-08-31T10:42:32.405Z,54.30
2018-08-31T10:45:05.306Z,55.00
2018-08-31T10:47:36.417Z,55.00
2018-08-31T10:50:11.168Z,53.20
2018-08-31T10:52:41.372Z,53.80
2018-08-31T10:55:11.893Z,53.10
2018-08-31T10:57:42.812Z,51.80
2018-08-31T11:00:20.231Z,50.80
2018-08-31T11:02:50.697Z,50.70
2018-08-31T11:05:24.487Z,51.10
2018-08-31T11:07:56.957Z,51.20
2018-08-31T11:10:27.491Z,49.70
2018-08-31T11:12:58.297Z,50.60
2018-08-31T11:15:29.228Z,49.70
2018-08-31T11:18:01.434Z,49.70
2018-08-31T11:20:32.144Z,48.80
2018-08-31T11:23:07.487Z,48.80
2018-08-31T11:25:39.296Z,49.80
2018-08-31T11:28:10.641Z,48.80
2018-08-31T11:30:41.182Z,48.60
2018-08-31T11:33:15.864Z,49.30
2018-08-31T11:35:50.820Z,49.00
2018-08-31T11:38:22.336Z,47.80
2018-08-31T11:40:57.428Z,46.40
2018-08-31T11:43:29.947Z,46.10
2018-08-31T11:46:06.247Z,45.20
2018-08-31T11:48:45.815Z,45.70
2018-08-31T11:51:23.323Z,45.70
2018-08-31T11:54:09.732Z,46.70
2018-08-31T11:56:54.038Z,46.40
2018-08-31T11:59:35.871Z,46.00
2018-08-31T12:02:22.650Z,45.90
2018-08-31T12:05:13.080Z,44.20
2018-08-31T12:07:49.144Z,43.20
2018-08-31T12:10:22.634Z,42.70
2018-08-31T12:12:53.950Z,42.80
2018-08-31T12:15:28.337Z,42.80
2018-08-31T12:18:00.088Z,43.90
2018-08-31T12:20:33.046Z,44.00
2018-08-31T12:23:05.408Z,43.90
2018-08-31T12:25:37.025Z,43.50
2018-08-31T12:28:11.698Z,42.20
2018-08-31T12:30:45.076Z,42.90
2018-08-31T12:33:16.547Z,42.90
2018-08-31T12:35:46.863Z,44.00
2018-08-31T12:38:18.064Z,43.90
2018-08-31T12:40:48.770Z,43.40
2018-08-31T12:43:19.951Z,43.90
2018-08-31T12:45:54.758Z,42.70
2018-08-31T12:48:26.295Z,42.30
2018-08-31T12:51:01.855Z,42.30
2018-08-31T12:53:32.649Z,42.90
2018-08-31T12:56:04.170Z,43.30
2018-08-31T12:58:35.505Z,45.50
2018-08-31T13:01:07.395Z,43.10
2018-08-31T13:03:38.063Z,42.80
2018-08-31T13:06:09.532Z,42.60
2018-08-31T13:08:42.293Z,42.30
2018-08-31T13:11:13.757Z,41.80
2018-08-31T13:13:46.307Z,41.50
2018-08-31T13:16:17.693Z,42.50
2018-08-31T13:18:48.630Z,42.20
2018-08-31T13:21:20.309Z,42.90
2018-08-31T13:23:51.398Z,42.00
2018-08-31T13:26:23.999Z,40.90
2018-08-31T13:28:55.749Z,41.00
2018-08-31T13:31:25.829Z,40.20
2018-08-31T13:33:56.056Z,40.60
2018-08-31T13:36:26.377Z,40.70
2018-08-31T13:38:56.319Z,41.20
2018-08-31T13:41:27.801Z,39.40
2018-08-31T13:43:59.341Z,39.50
2018-08-31T13:46:30.860Z,39.20
2018-08-31T13:49:04.526Z,39.90
2018-08-31T13:51:41.066Z,39.80
2018-08-31T13:54:12.383Z,40.70
2018-08-31T13:56:42.739Z,40.60
2018-08-31T13:59:16.699Z,40.00
2018-08-31T14:01:47.539Z,40.20
2018-08-31T14:04:22.467Z,39.10
2018-08-31T14:06:53.077Z,40.10
2018-08-31T14:09:24.151Z,39.40
2018-08-31T14:11:54.900Z,39.00
2018-08-31T14:14:25.666Z,39.40
2018-08-31T14:16:55.812Z,38.30
2018-08-31T14:19:28.233Z,38.60
2018-08-31T14:22:00.041Z,36.90
2018-08-31T14:24:30.452Z,37.70
2018-08-31T14:27:03.758Z,38.10
2018-08-31T14:29:36.913Z,38.20
2018-08-31T14:32:11.476Z,38.40
2018-08-31T14:34:43.097Z,38.80
2018-08-31T14:37:14.254Z,37.90
2018-08-31T14:39:45.347Z,38.50
2018-08-31T14:42:16.089Z,37.20
2018-08-31T14:44:47.098Z,37.40
2018-08-31T14:47:18.260Z,36.50
2018-08-31T14:49:52.222Z,36.30
2018-08-31T14:52:32.818Z,37.60
2018-08-31T14:55:17.019Z,37.80
2018-08-31T14:57:50.889Z,38.30
2018-08-31T15:00:23.095Z,40.70
2018-08-31T15:02:53.993Z,41.10
2018-08-31T15:05:24.759Z,40.70
2018-08-31T15:07:56.151Z,41.00
2018-08-31T15:10:26.895Z,41.10
2018-08-31T15:12:57.789Z,40.40
2018-08-31T15:15:28.899Z,40.20
2018-08-31T15:18:00.579Z,39.90
2018-08-31T15:20:31.954Z,40.60
2018-08-31T15:23:04.478Z,39.50
2018-08-31T15:25:37.597Z,39.70
2018-08-31T15:28:09.830Z,39.50
2018-08-31T15:30:41.039Z,38.60
2018-08-31T15:33:17.508Z,39.10
2018-08-31T15:35:47.744Z,38.90
2018-08-31T15:38:19.744Z,39.40
2018-08-31T15:40:50.710Z,40.00
2018-08-31T15:43:21.475Z,40.00
2018-08-31T15:45:52.776Z,42.00
2018-08-31T15:48:23.450Z,44.00
2018-08-31T15:50:55.641Z,44.30
2018-08-31T15:53:27.491Z,44.60
2018-08-31T15:55:58.795Z,44.70
2018-08-31T15:58:37.553Z,44.20
2018-08-31T16:01:10.766Z,44.00
2018-08-31T16:03:44.380Z,43.80
2018-08-31T16:06:15.304Z,44.40
2018-08-31T16:08:46.408Z,44.70
2018-08-31T16:11:19.148Z,44.80
2018-08-31T16:13:50.548Z,44.90
2018-08-31T16:16:21.706Z,45.40
2018-08-31T16:18:52.080Z,45.60
2018-08-31T16:21:24.089Z,45.20
2018-08-31T16:23:58.889Z,45.00
2018-08-31T16:26:30.272Z,44.90
2018-08-31T16:29:02.317Z,44.90
2018-08-31T16:31:35.598Z,45.40
2018-08-31T16:34:13.492Z,45.40
2018-08-31T16:36:44.333Z,45.40
2018-08-31T16:39:14.874Z,45.30
2018-08-31T16:41:45.036Z,45.70
2018-08-31T16:44:16.987Z,45.50
2018-08-31T16:46:48.992Z,45.70
2018-08-31T16:49:20.702Z,45.40
2018-08-31T16:51:51.568Z,45.60
2018-08-31T16:54:22.336Z,45.80
2018-08-31T16:56:53.777Z,45.70
2018-08-31T16:59:24.231Z,45.40
2018-08-31T17:01:54.954Z,45.10
2018-08-31T17:04:32.824Z,45.40
2018-08-31T17:07:05.069Z,45.40
2018-08-31T17:09:36.045Z,45.40
2018-08-31T17:12:07.760Z,44.60
2018-08-31T17:14:40.070Z,45.30
2018-08-31T17:17:09.963Z,45.20
2018-08-31T17:19:40.744Z,45.10
2018-08-31T17:22:13.821Z,45.40
2018-08-31T17:24:44.210Z,45.50
2018-08-31T17:27:20.160Z,45.40
2018-08-31T17:29:50.501Z,45.30
2018-08-31T17:32:25.764Z,45.80
2018-08-31T17:35:01.641Z,45.00
2018-08-31T17:37:37.827Z,45.00
2018-08-31T17:40:10.101Z,45.20
2018-08-31T17:42:45.718Z,44.90
2018-08-31T17:45:22.103Z,44.70
2018-08-31T17:47:53.799Z,44.70
2018-08-31T17:50:25.693Z,44.70
2018-08-31T17:52:55.974Z,44.70
2018-08-31T17:55:28.043Z,45.00
2018-08-31T17:57:58.420Z,45.40
2018-08-31T18:00:31.440Z,45.60
2018-08-31T18:03:08.911Z,45.50
2018-08-31T18:05:45.869Z,45.10
2018-08-31T18:08:21.724Z,45.70
2018-08-31T18:10:56.050Z,44.80
2018-08-31T18:13:30.820Z,44.70
2018-08-31T18:16:07.059Z,44.60
2018-08-31T18:18:40.220Z,44.80
2018-08-31T18:21:11.830Z,45.40
2018-08-31T18:23:44.392Z,45.30
2018-08-31T18:26:16.533Z,45.50
2018-08-31T18:28:49.628Z,45.80
2018-08-31T18:31:21.856Z,46.00
2018-08-31T18:33:53.344Z,46.20
2018-08-31T18:36:24.791Z,46.60
2018-08-31T18:38:56.197Z,46.90
2018-08-31T18:41:27.368Z,47.40
2018-08-31T18:44:02.783Z,47.40
2018-08-31T18:46:39.276Z,47.80
2018-08-31T18:49:15.332Z,47.90
2018-08-31T18:51:51.830Z,48.30
2018-08-31T18:54:25.191Z,48.00
2018-08-31T18:57:00.684Z,48.10
2018-08-31T18:59:34.931Z,48.00
2018-08-31T19:02:07.866Z,48.00
2018-08-31T19:04:41.828Z,48.00
2018-08-31T19:07:13.030Z,48.00
2018-08-31T19:09:45.243Z,48.10
2018-08-31T19:12:17.622Z,48.00
2018-08-31T19:14:55.468Z,48.40
2018-08-31T19:17:31.715Z,48.60
2018-08-31T19:20:04.202Z,49.30
2018-08-31T19:22:38.178Z,49.30
2018-08-31T19:25:12.704Z,49.60
2018-08-31T19:27:43.026Z,49.60
2018-08-31T19:30:16.086Z,49.50
2018-08-31T19:32:50.976Z,49.60
2018-08-31T19:35:21.611Z,49.80
2018-08-31T19:37:59.098Z,49.70
2018-08-31T19:40:31.692Z,50.10
2018-08-31T19:43:04.999Z,51.20
2018-08-31T19:45:36.120Z,50.80
2018-08-31T19:48:09.503Z,51.00
2018-08-31T19:50:46.755Z,51.00
2018-08-31T19:53:17.612Z,51.00
2018-08-31T19:55:49.390Z,51.20
2018-08-31T19:58:20.230Z,51.40
2018-08-31T20:00:52.941Z,51.60
2018-08-31T20:03:26.546Z,51.90
2018-08-31T20:05:59.400Z,52.00
2018-08-31T20:08:31.645Z,52.20
2018-08-31T20:11:09.692Z,52.30
2018-08-31T20:13:51.817Z,52.50
2018-08-31T20:16:26.788Z,52.50
2018-08-31T20:19:05.763Z,52.70
2018-08-31T20:21:39.101Z,52.80
2018-08-31T20:24:13.191Z,53.10
2018-08-31T20:26:48.228Z,53.40
2018-08-31T20:29:18.723Z,53.30
2018-08-31T20:31:51.765Z,54.00
2018-08-31T20:34:25.675Z,54.00
2018-08-31T20:36:58.619Z,54.10
2018-08-31T20:39:31.232Z,54.10
2018-08-31T20:42:06.104Z,54.40
2018-08-31T20:44:38.887Z,55.30
2018-08-31T20:47:12.316Z,54.40
2018-08-31T20:49:44.222Z,54.60
2018-08-31T20:52:16.730Z,54.70
2018-08-31T20:54:48.781Z,54.60
2018-08-31T20:57:20.063Z,54.60
2018-08-31T20:59:51.150Z,54.70
2018-08-31T21:02:24.014Z,55.20
2018-08-31T21:04:57.211Z,54.10
2018-08-31T21:07:29.315Z,54.90
2018-08-31T21:10:00.217Z,55.00
2018-08-31T21:12:31.658Z,55.20
2018-08-31T21:15:06.370Z,55.20
2018-08-31T21:17:37.113Z,55.20
2018-08-31T21:20:12.762Z,54.90
2018-08-31T21:22:44.185Z,54.60
2018-08-31T21:25:22.242Z,54.50
2018-08-31T21:27:55.644Z,54.40
2018-08-31T21:30:26.239Z,54.50
2018-08-31T21:33:01.029Z,54.50
2018-08-31T21:35:36.204Z,54.70
2018-08-31T21:38:09.244Z,54.80
2018-08-31T21:40:40.366Z,55.30
2018-08-31T21:43:10.986Z,55.30
2018-08-31T21:45:41.662Z,55.60
2018-08-31T21:48:14.414Z,55.60
2018-08-31T21:50:49.114Z,55.50
2018-08-31T21:53:22.841Z,55.20
2018-08-31T21:55:53.377Z,55.30
2018-08-31T21:58:27.632Z,55.00
2018-08-31T22:01:05.641Z,54.70
2018-08-31T22:03:40.013Z,55.00
2018-08-31T22:06:13.192Z,55.70
2018-08-31T22:08:47.225Z,55.40
2018-08-31T22:11:19.716Z,56.00
2018-08-31T22:13:51.218Z,55.00
2018-08-31T22:16:21.781Z,55.00
2018-08-31T22:18:55.834Z,54.20
2018-08-31T22:21:26.412Z,55.30
2018-08-31T22:23:57.692Z,55.60
2018-08-31T22:26:28.216Z,55.80
2018-08-31T22:29:00.410Z,57.00
2018-08-31T22:31:32.190Z,55.40
2018-08-31T22:34:02.590Z,55.50
2018-08-31T22:36:37.103Z,56.00
2018-08-31T22:39:09.778Z,56.10
2018-08-31T22:41:41.197Z,55.70
2018-08-31T22:45:33.300Z,56.20
2018-08-31T22:48:05.314Z,56.00
2018-08-31T22:50:36.635Z,56.10
2018-08-31T22:53:09.301Z,55.70
2018-08-31T22:55:39.630Z,55.50
2018-08-31T22:58:10.781Z,55.60
2018-08-31T23:00:41.763Z,55.90
2018-08-31T23:03:12.341Z,55.80
2018-08-31T23:05:43.063Z,55.70
2018-08-31T23:08:13.489Z,55.50
2018-08-31T23:10:44.674Z,55.50
2018-08-31T23:13:15.532Z,56.20
2018-08-31T23:15:53.893Z,56.30
2018-08-31T23:18:26.310Z,57.80
2018-08-31T23:21:01.551Z,56.20
2018-08-31T23:23:37.346Z,55.60
2018-08-31T23:26:09.474Z,55.70
2018-08-31T23:28:40.456Z,54.20
2018-08-31T23:31:10.482Z,55.60
2018-08-31T23:33:41.332Z,55.80
2018-08-31T23:36:11.612Z,55.90
2018-08-31T23:38:42.628Z,56.10
2018-08-31T23:41:30.647Z,55.80
2018-08-31T23:44:04.945Z,56.10
2018-08-31T23:46:38.487Z,56.20
2018-08-31T23:49:10.780Z,56.30
2018-08-31T23:51:41.662Z,56.20
2018-08-31T23:54:14.619Z,56.00
2018-08-31T23:56:44.450Z,55.90
2018-08-31T23:59:14.816Z,56.00
